METAR
Diposting tanggal: 27 Agustus 2020

Pukul : 09.30 UTC

Isi :

METAR WAGI 220930Z 28003KT 8000 FEW012CB BKN013 26/24 Q1009 NOSIG RMK CB TO E=